createdAt,value
2022-08-03T00:04:33.587Z,63.20
2022-08-03T00:09:38.099Z,63.50
2022-08-03T00:14:43.473Z,63.90
2022-08-03T00:19:48.073Z,64.30
2022-08-03T00:24:51.685Z,64.60
2022-08-03T00:29:59.609Z,64.90
2022-08-03T00:35:07.971Z,65.10
2022-08-03T00:40:14.252Z,65.40
2022-08-03T00:45:19.738Z,65.90
2022-08-03T00:50:24.977Z,66.80
2022-08-03T00:55:29.035Z,66.60
2022-08-03T01:00:35.949Z,67.00
2022-08-03T01:05:46.409Z,67.40
2022-08-03T01:10:59.412Z,67.70
2022-08-03T01:16:10.882Z,67.90
2022-08-03T01:21:19.601Z,68.20
2022-08-03T01:26:38.852Z,68.40
2022-08-03T01:32:59.107Z,68.70
2022-08-03T01:37:17.547Z,69.00
2022-08-03T01:42:22.936Z,69.20
2022-08-03T01:47:30.560Z,69.30
2022-08-03T01:52:35.809Z,69.70
2022-08-03T01:58:06.217Z,70.00
2022-08-03T02:03:09.548Z,70.30
2022-08-03T02:08:14.952Z,70.60
2022-08-03T02:13:20.499Z,70.90
2022-08-03T02:18:26.779Z,71.20
2022-08-03T02:23:30.549Z,71.40
2022-08-03T02:28:38.441Z,71.70
2022-08-03T02:33:49.043Z,71.70
2022-08-03T02:38:55.173Z,72.00
2022-08-03T02:44:06.822Z,72.10
2022-08-03T02:49:41.076Z,72.30
2022-08-03T02:54:39.997Z,72.40
2022-08-03T02:59:44.949Z,72.70
2022-08-03T03:05:52.793Z,72.80
2022-08-03T03:10:16.814Z,73.10
2022-08-03T03:15:20.573Z,73.20
2022-08-03T03:20:30.184Z,73.20
2022-08-03T03:25:35.404Z,73.30
2022-08-03T03:30:39.156Z,73.30
2022-08-03T03:35:45.693Z,73.50
2022-08-03T03:40:49.845Z,73.60
2022-08-03T03:45:54.018Z,73.70
2022-08-03T03:50:59.714Z,73.70
2022-08-03T03:56:03.360Z,73.60
2022-08-03T04:01:08.793Z,73.80
2022-08-03T04:06:32.580Z,74.20
2022-08-03T04:11:40.604Z,74.30
2022-08-03T04:16:52.887Z,74.30
2022-08-03T04:22:02.169Z,74.50
2022-08-03T04:27:09.685Z,74.50
2022-08-03T04:32:16.303Z,74.50
2022-08-03T04:37:29.860Z,74.70
2022-08-03T04:42:35.434Z,75.20
2022-08-03T04:47:39.864Z,75.40
2022-08-03T04:52:45.010Z,75.60
2022-08-03T04:57:48.348Z,75.70
2022-08-03T05:02:52.062Z,75.40
2022-08-03T05:07:57.279Z,75.30
2022-08-03T05:13:04.874Z,75.40
2022-08-03T05:18:13.688Z,75.70
2022-08-03T05:23:19.371Z,75.90
2022-08-03T05:28:23.015Z,76.30
2022-08-03T05:33:26.743Z,76.70
2022-08-03T05:38:34.521Z,77.00
2022-08-03T05:43:38.961Z,77.30
2022-08-03T05:48:43.196Z,77.60
2022-08-03T05:53:48.314Z,77.50
2022-08-03T05:58:52.260Z,77.70
2022-08-03T06:03:55.917Z,78.00
2022-08-03T06:09:00.851Z,78.20
2022-08-03T06:14:04.582Z,78.20
2022-08-03T06:19:08.652Z,78.30
2022-08-03T06:24:13.678Z,78.40
2022-08-03T06:29:19.061Z,78.50
2022-08-03T06:34:33.905Z,78.60
2022-08-03T06:39:40.337Z,78.80
2022-08-03T06:44:43.944Z,78.80
2022-08-03T06:50:13.002Z,79.00
2022-08-03T06:55:13.010Z,79.20
2022-08-03T07:00:17.116Z,79.00
2022-08-03T07:05:21.098Z,78.80
2022-08-03T07:10:27.738Z,78.50
2022-08-03T07:15:53.938Z,78.60
2022-08-03T07:20:55.346Z,78.90
2022-08-03T07:26:00.530Z,78.60
2022-08-03T07:31:04.368Z,78.30
2022-08-03T07:36:08.238Z,78.60
2022-08-03T07:41:13.472Z,78.10
2022-08-03T07:46:17.194Z,77.60
2022-08-03T07:51:20.845Z,77.40
2022-08-03T07:56:26.030Z,77.60
2022-08-03T08:01:30.035Z,77.10
2022-08-03T08:06:34.057Z,77.00
2022-08-03T08:11:40.082Z,76.60
2022-08-03T08:16:43.905Z,76.00
2022-08-03T08:21:53.714Z,75.70
2022-08-03T08:27:08.855Z,75.30
2022-08-03T08:32:14.988Z,75.00
2022-08-03T08:37:18.922Z,74.60
2022-08-03T08:42:24.029Z,74.10
2022-08-03T08:47:50.662Z,73.70
2022-08-03T08:52:56.210Z,73.40
2022-08-03T08:58:05.552Z,72.00
2022-08-03T09:03:09.994Z,70.40
2022-08-03T09:08:13.457Z,68.80
2022-08-03T09:13:18.614Z,67.20
2022-08-03T09:18:32.891Z,65.80
2022-08-03T09:24:01.630Z,64.20
2022-08-03T09:29:14.445Z,62.80
2022-08-03T09:34:19.640Z,61.70
2022-08-03T09:39:41.508Z,60.90
2022-08-03T09:44:48.604Z,59.90
2022-08-03T09:50:01.408Z,58.70
2022-08-03T09:56:30.863Z,57.70
2022-08-03T10:00:55.131Z,56.80
2022-08-03T10:06:00.261Z,55.50
2022-08-03T10:11:04.054Z,55.10
2022-08-03T10:16:22.447Z,54.60
2022-08-03T10:21:33.601Z,54.00
2022-08-03T10:26:49.823Z,54.10
2022-08-03T10:31:59.585Z,53.70
2022-08-03T10:37:09.132Z,53.00
2022-08-03T10:42:14.612Z,52.40
2022-08-03T10:47:20.476Z,51.90
2022-08-03T10:52:33.904Z,51.60
2022-08-03T10:57:58.512Z,51.00
2022-08-03T11:03:15.147Z,50.80
2022-08-03T11:08:30.492Z,50.30
2022-08-03T11:13:34.711Z,50.20
2022-08-03T11:18:57.490Z,50.10
2022-08-03T11:24:03.305Z,49.20
2022-08-03T11:29:54.835Z,49.50
2022-08-03T11:35:13.740Z,48.90
2022-08-03T11:40:36.456Z,48.00
2022-08-03T11:45:40.274Z,47.80
2022-08-03T11:50:46.407Z,48.20
2022-08-03T11:55:50.364Z,48.10
2022-08-03T12:00:54.483Z,47.90
2022-08-03T12:06:01.788Z,47.20
2022-08-03T12:11:08.786Z,46.80
2022-08-03T12:16:19.457Z,46.40
2022-08-03T12:21:25.208Z,46.00
2022-08-03T12:26:29.756Z,46.00
2022-08-03T12:31:33.458Z,45.90
2022-08-03T12:36:39.195Z,45.40
2022-08-03T12:41:43.165Z,45.20
2022-08-03T12:46:48.136Z,44.30
2022-08-03T12:52:06.907Z,43.40
2022-08-03T12:57:16.177Z,43.30
2022-08-03T13:02:23.681Z,42.50
2022-08-03T13:07:31.347Z,41.80
2022-08-03T13:12:36.268Z,41.40
2022-08-03T13:17:39.959Z,41.30
2022-08-03T13:22:48.360Z,41.10
2022-08-03T13:28:03.287Z,41.00
2022-08-03T13:33:10.798Z,40.50
2022-08-03T13:38:15.954Z,40.30
2022-08-03T13:43:22.377Z,40.30
2022-08-03T13:48:36.206Z,40.00
2022-08-03T13:53:42.878Z,39.60
2022-08-03T13:58:46.547Z,39.50
2022-08-03T14:03:52.669Z,39.70
2022-08-03T14:09:00.566Z,39.80
2022-08-03T14:14:04.530Z,39.50
2022-08-03T14:19:08.340Z,39.70
2022-08-03T14:24:13.441Z,40.20
2022-08-03T14:29:17.153Z,40.40
2022-08-03T14:34:20.920Z,40.90
2022-08-03T14:39:26.185Z,40.80
2022-08-03T14:44:29.911Z,40.80
2022-08-03T14:50:31.915Z,41.00
2022-08-03T14:54:59.229Z,41.30
2022-08-03T15:00:03.293Z,41.40
2022-08-03T15:05:08.156Z,41.20
2022-08-03T15:10:13.193Z,41.20
2022-08-03T15:15:16.861Z,41.30
2022-08-03T15:20:25.635Z,41.40
2022-08-03T15:26:27.969Z,41.40
2022-08-03T15:31:01.827Z,41.60
2022-08-03T15:36:06.126Z,41.80
2022-08-03T15:41:13.780Z,42.20
2022-08-03T15:46:29.157Z,42.30
2022-08-03T15:51:33.415Z,42.40
2022-08-03T15:56:38.794Z,42.60
2022-08-03T16:01:43.331Z,42.80
2022-08-03T16:06:47.076Z,43.20
2022-08-03T16:11:51.945Z,43.60
2022-08-03T16:16:55.608Z,43.80
2022-08-03T16:21:59.098Z,43.90
2022-08-03T16:27:04.935Z,44.30
2022-08-03T16:32:12.345Z,44.50
2022-08-03T16:37:37.582Z,44.80
2022-08-03T16:42:41.282Z,45.40
2022-08-03T16:47:45.018Z,45.80
2022-08-03T16:52:48.802Z,46.10
2022-08-03T16:57:58.883Z,46.40
2022-08-03T17:03:12.498Z,46.70
2022-08-03T17:08:27.256Z,47.00
2022-08-03T17:13:39.599Z,47.30
2022-08-03T17:18:52.272Z,47.60
2022-08-03T17:23:59.970Z,47.90
2022-08-03T17:29:12.575Z,48.10
2022-08-03T17:34:17.061Z,48.40
2022-08-03T17:39:41.757Z,48.50
2022-08-03T17:44:47.108Z,48.70
2022-08-03T17:49:52.296Z,48.80
2022-08-03T17:55:56.673Z,48.90
2022-08-03T18:00:48.151Z,49.30
2022-08-03T18:06:11.660Z,49.60
2022-08-03T18:11:21.685Z,49.90
2022-08-03T18:16:37.613Z,50.40
2022-08-03T18:22:04.073Z,50.80
2022-08-03T18:27:08.389Z,51.10
2022-08-03T18:32:16.921Z,51.50
2022-08-03T18:37:25.478Z,52.00
2022-08-03T18:42:32.243Z,52.30
2022-08-03T18:47:59.542Z,52.70
2022-08-03T18:53:19.703Z,53.20
2022-08-03T18:58:35.944Z,53.40
2022-08-03T19:03:48.243Z,53.80
2022-08-03T19:08:57.644Z,54.10
2022-08-03T19:14:03.842Z,54.20
2022-08-03T19:19:14.403Z,54.50
2022-08-03T19:24:23.243Z,54.90
2022-08-03T19:29:57.947Z,55.00
2022-08-03T19:34:54.187Z,55.10
2022-08-03T19:40:00.598Z,55.40
2022-08-03T19:45:11.437Z,55.70
2022-08-03T19:50:21.419Z,56.10
2022-08-03T19:55:28.982Z,56.40
2022-08-03T20:00:38.347Z,56.60
2022-08-03T20:05:44.909Z,57.00
2022-08-03T20:10:55.995Z,57.30
2022-08-03T20:15:59.838Z,57.60
2022-08-03T20:21:15.310Z,57.80
2022-08-03T20:26:20.645Z,57.90
2022-08-03T20:31:32.409Z,58.20
2022-08-03T20:36:41.477Z,58.70
2022-08-03T20:41:46.388Z,59.70
2022-08-03T20:46:59.806Z,59.90
2022-08-03T20:52:06.244Z,60.30
2022-08-03T20:57:23.058Z,60.70
2022-08-03T21:02:29.545Z,61.00
2022-08-03T21:08:04.276Z,61.80
2022-08-03T21:13:17.701Z,62.00
2022-08-03T21:18:22.088Z,62.20
2022-08-03T21:23:39.769Z,62.60
2022-08-03T21:28:53.953Z,63.00
2022-08-03T21:33:59.483Z,63.30
2022-08-03T21:39:07.588Z,63.70
2022-08-03T21:44:11.303Z,64.10
2022-08-03T21:50:07.205Z,64.40
2022-08-03T21:54:43.698Z,64.70
2022-08-03T21:59:53.854Z,65.00
2022-08-03T22:04:58.195Z,65.50
2022-08-03T22:10:06.594Z,65.90
2022-08-03T22:15:12.172Z,66.20
2022-08-03T22:20:16.051Z,66.60
2022-08-03T22:25:24.504Z,66.50
2022-08-03T22:30:28.738Z,66.70
2022-08-03T22:35:47.333Z,67.00
2022-08-03T22:40:54.426Z,67.40
2022-08-03T22:46:10.628Z,67.80
2022-08-03T22:51:17.441Z,68.10
2022-08-03T22:56:23.093Z,68.40
2022-08-03T23:01:28.787Z,68.90
2022-08-03T23:06:35.767Z,69.30
2022-08-03T23:11:45.345Z,69.60
2022-08-03T23:16:51.346Z,69.70
2022-08-03T23:22:02.845Z,70.00
2022-08-03T23:27:09.692Z,70.20
2022-08-03T23:32:14.606Z,70.40
2022-08-03T23:37:19.270Z,70.60
2022-08-03T23:42:24.865Z,70.90
2022-08-03T23:47:47.209Z,71.30
2022-08-03T23:52:57.512Z,71.50
2022-08-03T23:58:10.935Z,71.70
